sensor_id;sensor_type;location;lat;lon;timestamp;P1;durP1;ratioP1;P2;durP2;ratioP2
11681;SDS011;5897;42.640;23.310;2022-07-06T00:02:17;11.52;;;10.32;;
11681;SDS011;5897;42.640;23.310;2022-07-06T00:04:43;11.27;;;9.40;;
11681;SDS011;5897;42.640;23.310;2022-07-06T00:07:11;10.57;;;8.55;;
11681;SDS011;5897;42.640;23.310;2022-07-06T00:09:39;10.00;;;8.70;;
11681;SDS011;5897;42.640;23.310;2022-07-06T00:12:06;10.25;;;9.23;;
11681;SDS011;5897;42.640;23.310;2022-07-06T00:14:33;11.13;;;10.02;;
11681;SDS011;5897;42.640;23.310;2022-07-06T00:17:00;13.32;;;10.10;;
11681;SDS011;5897;42.640;23.310;2022-07-06T00:19:27;12.20;;;10.52;;
11681;SDS011;5897;42.640;23.310;2022-07-06T00:21:54;12.75;;;11.50;;
11681;SDS011;5897;42.640;23.310;2022-07-06T00:24:22;12.48;;;11.25;;
11681;SDS011;5897;42.640;23.310;2022-07-06T00:26:49;13.38;;;11.85;;
11681;SDS011;5897;42.640;23.310;2022-07-06T00:29:16;12.43;;;11.15;;
11681;SDS011;5897;42.640;23.310;2022-07-06T00:31:42;15.35;;;11.55;;
11681;SDS011;5897;42.640;23.310;2022-07-06T00:34:09;12.57;;;11.27;;
11681;SDS011;5897;42.640;23.310;2022-07-06T00:36:36;13.02;;;10.48;;
11681;SDS011;5897;42.640;23.310;2022-07-06T00:39:02;12.90;;;11.70;;
11681;SDS011;5897;42.640;23.310;2022-07-06T00:41:31;13.00;;;11.80;;
11681;SDS011;5897;42.640;23.310;2022-07-06T00:43:57;12.77;;;11.57;;
11681;SDS011;5897;42.640;23.310;2022-07-06T00:46:26;13.55;;;12.15;;
11681;SDS011;5897;42.640;23.310;2022-07-06T00:48:54;14.10;;;12.32;;
11681;SDS011;5897;42.640;23.310;2022-07-06T00:51:22;13.02;;;11.43;;
11681;SDS011;5897;42.640;23.310;2022-07-06T00:53:51;12.73;;;11.43;;
11681;SDS011;5897;42.640;23.310;2022-07-06T00:56:19;11.38;;;10.27;;
11681;SDS011;5897;42.640;23.310;2022-07-06T00:58:47;11.68;;;10.48;;
11681;SDS011;5897;42.640;23.310;2022-07-06T01:01:14;11.95;;;10.77;;
11681;SDS011;5897;42.640;23.310;2022-07-06T01:03:41;13.00;;;10.90;;
11681;SDS011;5897;42.640;23.310;2022-07-06T01:06:08;11.15;;;10.10;;
11681;SDS011;5897;42.640;23.310;2022-07-06T01:08:35;11.00;;;9.88;;
11681;SDS011;5897;42.640;23.310;2022-07-06T01:11:01;11.15;;;10.15;;
11681;SDS011;5897;42.640;23.310;2022-07-06T01:13:28;10.80;;;9.80;;
11681;SDS011;5897;42.640;23.310;2022-07-06T01:16:00;13.52;;;10.07;;
11681;SDS011;5897;42.640;23.310;2022-07-06T01:18:27;11.25;;;10.18;;
11681;SDS011;5897;42.640;23.310;2022-07-06T01:21:06;11.35;;;10.25;;
11681;SDS011;5897;42.640;23.310;2022-07-06T01:23:40;10.77;;;9.68;;
11681;SDS011;5897;42.640;23.310;2022-07-06T01:26:11;10.70;;;9.75;;
11681;SDS011;5897;42.640;23.310;2022-07-06T01:28:39;10.48;;;9.50;;
11681;SDS011;5897;42.640;23.310;2022-07-06T01:31:13;10.52;;;9.52;;
11681;SDS011;5897;42.640;23.310;2022-07-06T01:33:40;10.48;;;9.55;;
11681;SDS011;5897;42.640;23.310;2022-07-06T01:36:09;12.60;;;10.13;;
11681;SDS011;5897;42.640;23.310;2022-07-06T01:38:42;12.18;;;10.95;;
11681;SDS011;5897;42.640;23.310;2022-07-06T01:41:10;11.70;;;10.55;;
11681;SDS011;5897;42.640;23.310;2022-07-06T01:43:38;11.80;;;10.60;;
11681;SDS011;5897;42.640;23.310;2022-07-06T01:46:04;13.40;;;10.65;;
11681;SDS011;5897;42.640;23.310;2022-07-06T01:48:32;11.00;;;9.90;;
11681;SDS011;5897;42.640;23.310;2022-07-06T01:50:58;10.60;;;9.52;;
11681;SDS011;5897;42.640;23.310;2022-07-06T01:53:26;11.10;;;9.98;;
11681;SDS011;5897;42.640;23.310;2022-07-06T01:55:53;10.48;;;9.48;;
11681;SDS011;5897;42.640;23.310;2022-07-06T01:58:20;10.75;;;9.50;;
11681;SDS011;5897;42.640;23.310;2022-07-06T02:00:46;10.07;;;9.00;;
11681;SDS011;5897;42.640;23.310;2022-07-06T02:03:13;10.82;;;9.20;;
11681;SDS011;5897;42.640;23.310;2022-07-06T02:05:40;9.98;;;8.98;;
11681;SDS011;5897;42.640;23.310;2022-07-06T02:08:07;12.07;;;8.73;;
11681;SDS011;5897;42.640;23.310;2022-07-06T02:10:35;12.38;;;9.55;;
11681;SDS011;5897;42.640;23.310;2022-07-06T02:13:01;11.15;;;9.98;;
11681;SDS011;5897;42.640;23.310;2022-07-06T02:15:29;10.50;;;9.50;;
11681;SDS011;5897;42.640;23.310;2022-07-06T02:17:56;10.88;;;9.77;;
11681;SDS011;5897;42.640;23.310;2022-07-06T02:20:22;10.15;;;9.15;;
11681;SDS011;5897;42.640;23.310;2022-07-06T02:22:49;9.25;;;8.18;;
11681;SDS011;5897;42.640;23.310;2022-07-06T02:25:16;12.23;;;10.10;;
11681;SDS011;5897;42.640;23.310;2022-07-06T02:27:44;10.00;;;7.75;;
11681;SDS011;5897;42.640;23.310;2022-07-06T02:30:11;10.02;;;9.02;;
11681;SDS011;5897;42.640;23.310;2022-07-06T02:32:38;9.30;;;8.40;;
11681;SDS011;5897;42.640;23.310;2022-07-06T02:35:04;8.63;;;7.93;;
11681;SDS011;5897;42.640;23.310;2022-07-06T02:37:32;8.88;;;7.93;;
11681;SDS011;5897;42.640;23.310;2022-07-06T02:39:58;9.15;;;8.25;;
11681;SDS011;5897;42.640;23.310;2022-07-06T02:42:25;8.38;;;7.68;;
11681;SDS011;5897;42.640;23.310;2022-07-06T02:44:53;8.95;;;7.93;;
11681;SDS011;5897;42.640;23.310;2022-07-06T02:47:20;8.93;;;8.00;;
11681;SDS011;5897;42.640;23.310;2022-07-06T02:49:47;9.00;;;8.10;;
11681;SDS011;5897;42.640;23.310;2022-07-06T02:52:13;11.60;;;8.02;;
11681;SDS011;5897;42.640;23.310;2022-07-06T02:54:40;8.98;;;8.18;;
11681;SDS011;5897;42.640;23.310;2022-07-06T02:57:07;11.57;;;8.73;;
11681;SDS011;5897;42.640;23.310;2022-07-06T02:59:34;9.48;;;8.57;;
11681;SDS011;5897;42.640;23.310;2022-07-06T03:02:03;9.20;;;8.30;;
11681;SDS011;5897;42.640;23.310;2022-07-06T03:04:30;10.23;;;8.57;;
11681;SDS011;5897;42.640;23.310;2022-07-06T03:06:56;9.30;;;8.40;;
11681;SDS011;5897;42.640;23.310;2022-07-06T03:09:23;10.95;;;9.85;;
11681;SDS011;5897;42.640;23.310;2022-07-06T03:11:50;10.43;;;8.38;;
11681;SDS011;5897;42.640;23.310;2022-07-06T03:14:17;10.68;;;9.68;;
11681;SDS011;5897;42.640;23.310;2022-07-06T03:16:44;10.00;;;9.07;;
11681;SDS011;5897;42.640;23.310;2022-07-06T03:19:12;8.68;;;7.88;;
11681;SDS011;5897;42.640;23.310;2022-07-06T03:21:39;7.75;;;7.05;;
11681;SDS011;5897;42.640;23.310;2022-07-06T03:24:06;7.00;;;6.30;;
11681;SDS011;5897;42.640;23.310;2022-07-06T03:26:33;8.40;;;5.95;;
11681;SDS011;5897;42.640;23.310;2022-07-06T03:28:59;6.00;;;5.38;;
11681;SDS011;5897;42.640;23.310;2022-07-06T03:31:26;6.22;;;5.60;;
11681;SDS011;5897;42.640;23.310;2022-07-06T03:33:53;6.22;;;5.30;;
11681;SDS011;5897;42.640;23.310;2022-07-06T03:36:21;5.85;;;5.28;;
11681;SDS011;5897;42.640;23.310;2022-07-06T03:38:48;6.22;;;5.43;;
11681;SDS011;5897;42.640;23.310;2022-07-06T03:41:14;6.00;;;5.15;;
11681;SDS011;5897;42.640;23.310;2022-07-06T03:43:41;5.90;;;5.25;;
11681;SDS011;5897;42.640;23.310;2022-07-06T03:46:08;8.25;;;5.43;;
11681;SDS011;5897;42.640;23.310;2022-07-06T03:48:35;6.43;;;5.28;;
11681;SDS011;5897;42.640;23.310;2022-07-06T03:51:02;5.82;;;5.05;;
11681;SDS011;5897;42.640;23.310;2022-07-06T03:53:30;6.13;;;4.97;;
11681;SDS011;5897;42.640;23.310;2022-07-06T03:55:57;6.78;;;4.90;;
11681;SDS011;5897;42.640;23.310;2022-07-06T03:58:41;6.50;;;4.53;;
11681;SDS011;5897;42.640;23.310;2022-07-06T04:01:08;6.35;;;5.00;;
11681;SDS011;5897;42.640;23.310;2022-07-06T04:03:34;5.97;;;4.93;;
11681;SDS011;5897;42.640;23.310;2022-07-06T04:06:01;8.02;;;5.03;;
11681;SDS011;5897;42.640;23.310;2022-07-06T04:08:29;5.25;;;4.68;;
11681;SDS011;5897;42.640;23.310;2022-07-06T04:10:56;5.68;;;5.07;;
11681;SDS011;5897;42.640;23.310;2022-07-06T04:13:23;6.53;;;4.93;;
11681;SDS011;5897;42.640;23.310;2022-07-06T04:15:50;5.80;;;5.28;;
11681;SDS011;5897;42.640;23.310;2022-07-06T04:18:17;6.65;;;5.25;;
11681;SDS011;5897;42.640;23.310;2022-07-06T04:20:44;7.45;;;5.40;;
11681;SDS011;5897;42.640;23.310;2022-07-06T04:23:10;6.88;;;5.10;;
11681;SDS011;5897;42.640;23.310;2022-07-06T04:25:39;6.40;;;5.15;;
11681;SDS011;5897;42.640;23.310;2022-07-06T04:28:05;5.57;;;5.03;;
11681;SDS011;5897;42.640;23.310;2022-07-06T04:30:32;7.78;;;5.32;;
11681;SDS011;5897;42.640;23.310;2022-07-06T04:32:59;7.28;;;5.10;;
11681;SDS011;5897;42.640;23.310;2022-07-06T04:35:26;5.65;;;5.03;;
11681;SDS011;5897;42.640;23.310;2022-07-06T04:37:53;7.70;;;5.45;;
11681;SDS011;5897;42.640;23.310;2022-07-06T04:40:20;8.80;;;5.55;;
11681;SDS011;5897;42.640;23.310;2022-07-06T04:42:48;6.40;;;5.72;;
11681;SDS011;5897;42.640;23.310;2022-07-06T04:45:15;6.05;;;5.03;;
11681;SDS011;5897;42.640;23.310;2022-07-06T04:47:42;5.43;;;4.93;;
11681;SDS011;5897;42.640;23.310;2022-07-06T04:50:09;6.85;;;5.65;;
11681;SDS011;5897;42.640;23.310;2022-07-06T04:52:36;6.15;;;5.55;;
11681;SDS011;5897;42.640;23.310;2022-07-06T04:55:03;6.70;;;6.00;;
11681;SDS011;5897;42.640;23.310;2022-07-06T04:57:31;8.80;;;6.45;;
11681;SDS011;5897;42.640;23.310;2022-07-06T04:59:59;9.55;;;6.65;;
11681;SDS011;5897;42.640;23.310;2022-07-06T05:02:26;8.25;;;7.10;;
11681;SDS011;5897;42.640;23.310;2022-07-06T05:04:52;8.68;;;7.75;;
11681;SDS011;5897;42.640;23.310;2022-07-06T05:07:19;10.43;;;8.80;;
11681;SDS011;5897;42.640;23.310;2022-07-06T05:09:46;12.05;;;8.02;;
11681;SDS011;5897;42.640;23.310;2022-07-06T05:12:13;9.48;;;7.72;;
11681;SDS011;5897;42.640;23.310;2022-07-06T05:14:40;10.30;;;8.60;;
11681;SDS011;5897;42.640;23.310;2022-07-06T05:17:08;10.68;;;8.35;;
11681;SDS011;5897;42.640;23.310;2022-07-06T05:19:34;13.23;;;8.73;;
11681;SDS011;5897;42.640;23.310;2022-07-06T05:22:01;11.18;;;8.45;;
11681;SDS011;5897;42.640;23.310;2022-07-06T05:24:28;11.02;;;8.43;;
11681;SDS011;5897;42.640;23.310;2022-07-06T05:26:55;8.82;;;8.02;;
11681;SDS011;5897;42.640;23.310;2022-07-06T05:29:22;9.30;;;8.18;;
11681;SDS011;5897;42.640;23.310;2022-07-06T05:31:48;9.70;;;7.93;;
11681;SDS011;5897;42.640;23.310;2022-07-06T05:34:16;9.23;;;8.07;;
11681;SDS011;5897;42.640;23.310;2022-07-06T05:36:43;10.25;;;8.05;;
11681;SDS011;5897;42.640;23.310;2022-07-06T05:39:10;11.73;;;7.57;;
11681;SDS011;5897;42.640;23.310;2022-07-06T05:41:37;8.48;;;6.90;;
11681;SDS011;5897;42.640;23.310;2022-07-06T05:44:04;8.02;;;7.25;;
11681;SDS011;5897;42.640;23.310;2022-07-06T05:46:31;7.35;;;6.65;;
11681;SDS011;5897;42.640;23.310;2022-07-06T05:48:58;6.95;;;6.25;;
11681;SDS011;5897;42.640;23.310;2022-07-06T05:51:43;10.02;;;7.07;;
11681;SDS011;5897;42.640;23.310;2022-07-06T05:54:10;9.45;;;7.80;;
11681;SDS011;5897;42.640;23.310;2022-07-06T05:56:37;8.98;;;8.07;;
11681;SDS011;5897;42.640;23.310;2022-07-06T05:59:04;9.73;;;8.73;;
11681;SDS011;5897;42.640;23.310;2022-07-06T06:01:30;9.65;;;8.30;;
11681;SDS011;5897;42.640;23.310;2022-07-06T06:03:57;10.18;;;8.30;;
11681;SDS011;5897;42.640;23.310;2022-07-06T06:06:24;10.82;;;7.85;;
11681;SDS011;5897;42.640;23.310;2022-07-06T06:08:52;8.23;;;7.45;;
11681;SDS011;5897;42.640;23.310;2022-07-06T06:11:19;8.23;;;7.15;;
11681;SDS011;5897;42.640;23.310;2022-07-06T06:13:46;7.70;;;6.90;;
11681;SDS011;5897;42.640;23.310;2022-07-06T06:16:13;7.65;;;6.60;;
11681;SDS011;5897;42.640;23.310;2022-07-06T06:18:40;8.43;;;7.38;;
11681;SDS011;5897;42.640;23.310;2022-07-06T06:21:07;7.80;;;6.88;;
11681;SDS011;5897;42.640;23.310;2022-07-06T06:23:34;8.07;;;7.28;;
11681;SDS011;5897;42.640;23.310;2022-07-06T06:26:02;9.68;;;7.55;;
11681;SDS011;5897;42.640;23.310;2022-07-06T06:28:29;8.80;;;7.10;;
11681;SDS011;5897;42.640;23.310;2022-07-06T06:30:56;12.43;;;8.20;;
11681;SDS011;5897;42.640;23.310;2022-07-06T06:33:22;9.13;;;8.07;;
11681;SDS011;5897;42.640;23.310;2022-07-06T06:35:50;8.98;;;8.10;;
11681;SDS011;5897;42.640;23.310;2022-07-06T06:38:18;11.52;;;8.52;;
11681;SDS011;5897;42.640;23.310;2022-07-06T06:40:45;8.45;;;7.57;;
11681;SDS011;5897;42.640;23.310;2022-07-06T06:43:13;10.48;;;7.95;;
11681;SDS011;5897;42.640;23.310;2022-07-06T06:45:40;9.38;;;7.78;;
11681;SDS011;5897;42.640;23.310;2022-07-06T06:48:07;11.50;;;8.13;;
11681;SDS011;5897;42.640;23.310;2022-07-06T06:50:34;10.15;;;8.05;;
11681;SDS011;5897;42.640;23.310;2022-07-06T06:53:02;12.00;;;8.27;;
11681;SDS011;5897;42.640;23.310;2022-07-06T06:55:29;9.10;;;8.20;;
11681;SDS011;5897;42.640;23.310;2022-07-06T06:57:55;11.82;;;8.73;;
11681;SDS011;5897;42.640;23.310;2022-07-06T07:00:23;9.40;;;8.40;;
11681;SDS011;5897;42.640;23.310;2022-07-06T07:02:51;9.60;;;8.60;;
11681;SDS011;5897;42.640;23.310;2022-07-06T07:05:17;13.48;;;8.45;;
11681;SDS011;5897;42.640;23.310;2022-07-06T07:07:44;9.55;;;8.73;;
11681;SDS011;5897;42.640;23.310;2022-07-06T07:10:11;9.68;;;8.77;;
11681;SDS011;5897;42.640;23.310;2022-07-06T07:12:42;10.75;;;9.20;;
11681;SDS011;5897;42.640;23.310;2022-07-06T07:15:09;10.93;;;9.27;;
11681;SDS011;5897;42.640;23.310;2022-07-06T07:17:38;10.77;;;9.45;;
11681;SDS011;5897;42.640;23.310;2022-07-06T07:20:05;10.55;;;9.45;;
11681;SDS011;5897;42.640;23.310;2022-07-06T07:22:33;12.38;;;9.95;;
11681;SDS011;5897;42.640;23.310;2022-07-06T07:25:00;11.23;;;10.10;;
11681;SDS011;5897;42.640;23.310;2022-07-06T07:27:27;11.18;;;10.05;;
11681;SDS011;5897;42.640;23.310;2022-07-06T07:29:53;11.95;;;10.48;;
11681;SDS011;5897;42.640;23.310;2022-07-06T07:32:20;11.85;;;10.20;;
11681;SDS011;5897;42.640;23.310;2022-07-06T07:34:48;12.10;;;10.90;;
11681;SDS011;5897;42.640;23.310;2022-07-06T07:37:15;15.48;;;10.60;;
11681;SDS011;5897;42.640;23.310;2022-07-06T07:39:42;12.85;;;11.40;;
11681;SDS011;5897;42.640;23.310;2022-07-06T07:42:08;12.70;;;11.43;;
11681;SDS011;5897;42.640;23.310;2022-07-06T07:44:35;12.25;;;10.90;;
11681;SDS011;5897;42.640;23.310;2022-07-06T07:47:03;12.23;;;11.02;;
11681;SDS011;5897;42.640;23.310;2022-07-06T07:49:30;13.43;;;11.45;;
11681;SDS011;5897;42.640;23.310;2022-07-06T07:51:58;12.20;;;11.00;;
11681;SDS011;5897;42.640;23.310;2022-07-06T07:54:28;12.68;;;11.43;;
11681;SDS011;5897;42.640;23.310;2022-07-06T07:56:55;12.05;;;10.95;;
11681;SDS011;5897;42.640;23.310;2022-07-06T07:59:22;11.43;;;10.40;;
11681;SDS011;5897;42.640;23.310;2022-07-06T08:01:49;12.07;;;10.82;;
11681;SDS011;5897;42.640;23.310;2022-07-06T08:04:16;12.88;;;11.20;;
11681;SDS011;5897;42.640;23.310;2022-07-06T08:06:42;11.85;;;10.68;;
11681;SDS011;5897;42.640;23.310;2022-07-06T08:09:11;12.80;;;11.48;;
11681;SDS011;5897;42.640;23.310;2022-07-06T08:11:37;14.07;;;11.50;;
11681;SDS011;5897;42.640;23.310;2022-07-06T08:14:04;12.38;;;11.18;;
11681;SDS011;5897;42.640;23.310;2022-07-06T08:16:31;11.65;;;10.07;;
11681;SDS011;5897;42.640;23.310;2022-07-06T08:18:58;10.60;;;9.60;;
11681;SDS011;5897;42.640;23.310;2022-07-06T08:21:26;9.77;;;8.98;;
11681;SDS011;5897;42.640;23.310;2022-07-06T08:23:53;10.77;;;9.77;;
11681;SDS011;5897;42.640;23.310;2022-07-06T08:26:22;10.73;;;9.73;;
11681;SDS011;5897;42.640;23.310;2022-07-06T08:28:49;11.02;;;9.65;;
11681;SDS011;5897;42.640;23.310;2022-07-06T08:31:16;11.80;;;9.88;;
11681;SDS011;5897;42.640;23.310;2022-07-06T08:33:43;11.63;;;9.57;;
11681;SDS011;5897;42.640;23.310;2022-07-06T08:36:10;10.52;;;8.90;;
11681;SDS011;5897;42.640;23.310;2022-07-06T08:38:36;10.32;;;9.32;;
11681;SDS011;5897;42.640;23.310;2022-07-06T08:41:03;10.30;;;9.40;;
11681;SDS011;5897;42.640;23.310;2022-07-06T08:43:33;10.00;;;8.98;;
11681;SDS011;5897;42.640;23.310;2022-07-06T08:46:03;10.82;;;8.93;;
11681;SDS011;5897;42.640;23.310;2022-07-06T08:48:31;11.40;;;9.95;;
11681;SDS011;5897;42.640;23.310;2022-07-06T08:51:04;11.02;;;9.30;;
11681;SDS011;5897;42.640;23.310;2022-07-06T08:53:31;10.70;;;9.68;;
11681;SDS011;5897;42.640;23.310;2022-07-06T08:55:58;10.50;;;9.40;;
11681;SDS011;5897;42.640;23.310;2022-07-06T08:58:27;10.85;;;9.75;;
11681;SDS011;5897;42.640;23.310;2022-07-06T09:00:55;10.27;;;9.38;;
11681;SDS011;5897;42.640;23.310;2022-07-06T09:03:23;10.00;;;9.10;;
11681;SDS011;5897;42.640;23.310;2022-07-06T09:05:50;13.32;;;8.77;;
11681;SDS011;5897;42.640;23.310;2022-07-06T09:08:19;10.50;;;9.15;;
11681;SDS011;5897;42.640;23.310;2022-07-06T09:10:48;11.73;;;9.40;;
11681;SDS011;5897;42.640;23.310;2022-07-06T09:13:15;9.90;;;8.90;;
11681;SDS011;5897;42.640;23.310;2022-07-06T09:15:41;10.27;;;9.30;;
11681;SDS011;5897;42.640;23.310;2022-07-06T09:18:09;11.00;;;8.75;;
11681;SDS011;5897;42.640;23.310;2022-07-06T09:20:36;9.95;;;9.05;;
11681;SDS011;5897;42.640;23.310;2022-07-06T09:23:04;10.07;;;9.07;;
11681;SDS011;5897;42.640;23.310;2022-07-06T09:25:31;9.40;;;8.50;;
11681;SDS011;5897;42.640;23.310;2022-07-06T09:27:59;10.10;;;9.15;;
11681;SDS011;5897;42.640;23.310;2022-07-06T09:30:27;9.88;;;8.95;;
11681;SDS011;5897;42.640;23.310;2022-07-06T09:32:56;11.75;;;9.75;;
11681;SDS011;5897;42.640;23.310;2022-07-06T09:35:26;10.77;;;9.18;;
11681;SDS011;5897;42.640;23.310;2022-07-06T09:38:01;10.45;;;8.95;;
11681;SDS011;5897;42.640;23.310;2022-07-06T09:40:32;8.77;;;7.97;;
11681;SDS011;5897;42.640;23.310;2022-07-06T09:45:46;11.10;;;8.82;;
11681;SDS011;5897;42.640;23.310;2022-07-06T09:48:16;9.55;;;8.63;;
11681;SDS011;5897;42.640;23.310;2022-07-06T09:50:49;9.27;;;8.38;;
11681;SDS011;5897;42.640;23.310;2022-07-06T09:53:18;9.25;;;8.45;;
11681;SDS011;5897;42.640;23.310;2022-07-06T09:55:45;10.23;;;9.30;;
11681;SDS011;5897;42.640;23.310;2022-07-06T09:58:13;11.88;;;10.57;;
11681;SDS011;5897;42.640;23.310;2022-07-06T10:00:40;11.82;;;10.63;;
11681;SDS011;5897;42.640;23.310;2022-07-06T10:03:08;10.50;;;9.60;;
11681;SDS011;5897;42.640;23.310;2022-07-06T10:05:36;12.30;;;10.80;;
11681;SDS011;5897;42.640;23.310;2022-07-06T10:08:05;11.68;;;10.57;;
11681;SDS011;5897;42.640;23.310;2022-07-06T10:10:34;13.93;;;10.73;;
11681;SDS011;5897;42.640;23.310;2022-07-06T10:13:03;11.90;;;10.70;;
11681;SDS011;5897;42.640;23.310;2022-07-06T10:15:32;12.63;;;11.38;;
11681;SDS011;5897;42.640;23.310;2022-07-06T10:18:02;10.93;;;9.90;;
11681;SDS011;5897;42.640;23.310;2022-07-06T10:20:34;11.95;;;10.75;;
11681;SDS011;5897;42.640;23.310;2022-07-06T10:23:06;11.93;;;10.82;;
11681;SDS011;5897;42.640;23.310;2022-07-06T10:25:35;11.15;;;10.15;;
11681;SDS011;5897;42.640;23.310;2022-07-06T10:28:02;11.48;;;10.40;;
11681;SDS011;5897;42.640;23.310;2022-07-06T10:30:36;10.82;;;9.73;;
11681;SDS011;5897;42.640;23.310;2022-07-06T10:33:07;11.48;;;10.38;;
11681;SDS011;5897;42.640;23.310;2022-07-06T10:35:39;11.05;;;9.93;;
11681;SDS011;5897;42.640;23.310;2022-07-06T10:38:09;10.82;;;9.80;;
11681;SDS011;5897;42.640;23.310;2022-07-06T10:40:36;11.30;;;10.18;;
11681;SDS011;5897;42.640;23.310;2022-07-06T10:43:22;12.10;;;10.90;;
11681;SDS011;5897;42.640;23.310;2022-07-06T10:45:50;12.10;;;10.88;;
11681;SDS011;5897;42.640;23.310;2022-07-06T10:48:20;11.68;;;10.57;;
11681;SDS011;5897;42.640;23.310;2022-07-06T10:50:48;11.70;;;10.55;;
11681;SDS011;5897;42.640;23.310;2022-07-06T10:53:20;11.25;;;10.07;;
11681;SDS011;5897;42.640;23.310;2022-07-06T10:55:49;12.20;;;11.00;;
11681;SDS011;5897;42.640;23.310;2022-07-06T11:01:12;10.52;;;9.63;;
11681;SDS011;5897;42.640;23.310;2022-07-06T11:03:40;12.13;;;9.85;;
11681;SDS011;5897;42.640;23.310;2022-07-06T11:06:12;10.85;;;9.85;;
11681;SDS011;5897;42.640;23.310;2022-07-06T11:08:46;11.20;;;10.23;;
11681;SDS011;5897;42.640;23.310;2022-07-06T11:11:15;11.82;;;10.82;;
11681;SDS011;5897;42.640;23.310;2022-07-06T11:13:46;11.45;;;10.43;;
11681;SDS011;5897;42.640;23.310;2022-07-06T11:16:14;11.50;;;10.40;;
11681;SDS011;5897;42.640;23.310;2022-07-06T11:18:41;9.65;;;8.65;;
11681;SDS011;5897;42.640;23.310;2022-07-06T11:21:18;10.20;;;9.30;;
11681;SDS011;5897;42.640;23.310;2022-07-06T11:23:49;11.45;;;10.35;;
11681;SDS011;5897;42.640;23.310;2022-07-06T11:26:17;12.60;;;11.32;;
11681;SDS011;5897;42.640;23.310;2022-07-06T11:28:45;11.60;;;10.50;;
11681;SDS011;5897;42.640;23.310;2022-07-06T11:31:14;12.13;;;11.02;;
11681;SDS011;5897;42.640;23.310;2022-07-06T11:33:44;11.18;;;10.02;;
11681;SDS011;5897;42.640;23.310;2022-07-06T11:36:15;11.43;;;10.48;;
11681;SDS011;5897;42.640;23.310;2022-07-06T11:39:04;12.32;;;11.23;;
11681;SDS011;5897;42.640;23.310;2022-07-06T11:41:31;10.68;;;9.70;;
11681;SDS011;5897;42.640;23.310;2022-07-06T11:43:59;10.60;;;9.70;;
11681;SDS011;5897;42.640;23.310;2022-07-06T11:46:27;11.23;;;10.13;;
11681;SDS011;5897;42.640;23.310;2022-07-06T11:48:55;12.00;;;10.90;;
11681;SDS011;5897;42.640;23.310;2022-07-06T11:51:24;11.20;;;10.20;;
11681;SDS011;5897;42.640;23.310;2022-07-06T11:53:53;10.23;;;9.32;;
11681;SDS011;5897;42.640;23.310;2022-07-06T11:56:23;9.82;;;8.93;;
11681;SDS011;5897;42.640;23.310;2022-07-06T11:58:52;10.55;;;9.65;;
11681;SDS011;5897;42.640;23.310;2022-07-06T12:01:20;10.73;;;9.48;;
11681;SDS011;5897;42.640;23.310;2022-07-06T12:03:50;10.32;;;9.23;;
11681;SDS011;5897;42.640;23.310;2022-07-06T12:06:17;9.93;;;8.57;;
11681;SDS011;5897;42.640;23.310;2022-07-06T12:08:46;9.88;;;9.07;;
11681;SDS011;5897;42.640;23.310;2022-07-06T12:11:20;10.27;;;9.27;;
11681;SDS011;5897;42.640;23.310;2022-07-06T12:13:50;10.07;;;9.18;;
11681;SDS011;5897;42.640;23.310;2022-07-06T12:16:18;10.40;;;9.27;;
11681;SDS011;5897;42.640;23.310;2022-07-06T12:18:46;10.40;;;9.40;;
11681;SDS011;5897;42.640;23.310;2022-07-06T12:21:14;10.57;;;9.65;;
11681;SDS011;5897;42.640;23.310;2022-07-06T12:23:44;11.07;;;10.18;;
11681;SDS011;5897;42.640;23.310;2022-07-06T12:26:11;10.82;;;9.82;;
11681;SDS011;5897;42.640;23.310;2022-07-06T12:28:41;9.82;;;8.93;;
11681;SDS011;5897;42.640;23.310;2022-07-06T12:31:08;9.82;;;8.93;;
11681;SDS011;5897;42.640;23.310;2022-07-06T12:33:35;9.38;;;8.48;;
11681;SDS011;5897;42.640;23.310;2022-07-06T12:36:09;9.52;;;7.82;;
11681;SDS011;5897;42.640;23.310;2022-07-06T12:38:40;7.85;;;7.22;;
11681;SDS011;5897;42.640;23.310;2022-07-06T12:41:10;8.35;;;7.20;;
11681;SDS011;5897;42.640;23.310;2022-07-06T12:43:38;7.22;;;6.53;;
11681;SDS011;5897;42.640;23.310;2022-07-06T12:48:56;7.80;;;7.10;;
11681;SDS011;5897;42.640;23.310;2022-07-06T12:51:24;8.45;;;6.97;;
11681;SDS011;5897;42.640;23.310;2022-07-06T12:53:52;7.00;;;6.38;;
11681;SDS011;5897;42.640;23.310;2022-07-06T12:56:19;6.45;;;5.95;;
11681;SDS011;5897;42.640;23.310;2022-07-06T12:58:58;6.40;;;5.90;;
11681;SDS011;5897;42.640;23.310;2022-07-06T13:01:26;7.95;;;6.03;;
11681;SDS011;5897;42.640;23.310;2022-07-06T13:03:54;6.50;;;5.88;;
11681;SDS011;5897;42.640;23.310;2022-07-06T13:06:26;6.40;;;5.78;;
11681;SDS011;5897;42.640;23.310;2022-07-06T13:08:57;6.43;;;5.82;;
11681;SDS011;5897;42.640;23.310;2022-07-06T13:11:23;6.38;;;5.68;;
11681;SDS011;5897;42.640;23.310;2022-07-06T13:13:50;6.43;;;5.93;;
11681;SDS011;5897;42.640;23.310;2022-07-06T13:16:17;6.88;;;5.72;;
11681;SDS011;5897;42.640;23.310;2022-07-06T13:18:44;5.30;;;4.90;;
11681;SDS011;5897;42.640;23.310;2022-07-06T13:21:12;5.43;;;4.93;;
11681;SDS011;5897;42.640;23.310;2022-07-06T13:23:39;5.43;;;5.03;;
11681;SDS011;5897;42.640;23.310;2022-07-06T13:26:06;4.72;;;4.32;;
11681;SDS011;5897;42.640;23.310;2022-07-06T13:28:33;5.10;;;4.65;;
11681;SDS011;5897;42.640;23.310;2022-07-06T13:31:00;9.23;;;8.25;;
11681;SDS011;5897;42.640;23.310;2022-07-06T13:33:26;4.82;;;4.40;;
11681;SDS011;5897;42.640;23.310;2022-07-06T13:35:53;5.18;;;3.90;;
11681;SDS011;5897;42.640;23.310;2022-07-06T13:38:21;4.22;;;3.80;;
11681;SDS011;5897;42.640;23.310;2022-07-06T13:40:48;5.65;;;4.28;;
11681;SDS011;5897;42.640;23.310;2022-07-06T13:43:15;4.60;;;4.28;;
11681;SDS011;5897;42.640;23.310;2022-07-06T13:45:41;8.13;;;4.20;;
11681;SDS011;5897;42.640;23.310;2022-07-06T13:48:08;7.25;;;3.60;;
11681;SDS011;5897;42.640;23.310;2022-07-06T13:50:35;3.45;;;3.10;;
11681;SDS011;5897;42.640;23.310;2022-07-06T13:53:02;3.20;;;2.90;;
11681;SDS011;5897;42.640;23.310;2022-07-06T13:55:30;3.00;;;2.80;;
11681;SDS011;5897;42.640;23.310;2022-07-06T13:57:58;3.47;;;2.50;;
11681;SDS011;5897;42.640;23.310;2022-07-06T14:00:25;2.60;;;2.40;;
11681;SDS011;5897;42.640;23.310;2022-07-06T14:02:52;3.22;;;2.33;;
11681;SDS011;5897;42.640;23.310;2022-07-06T14:05:19;2.30;;;2.13;;
11681;SDS011;5897;42.640;23.310;2022-07-06T14:07:46;2.65;;;2.45;;
11681;SDS011;5897;42.640;23.310;2022-07-06T14:10:12;2.92;;;2.30;;
11681;SDS011;5897;42.640;23.310;2022-07-06T14:12:41;3.78;;;2.30;;
11681;SDS011;5897;42.640;23.310;2022-07-06T14:15:07;3.58;;;2.20;;
11681;SDS011;5897;42.640;23.310;2022-07-06T14:17:34;3.20;;;1.80;;
11681;SDS011;5897;42.640;23.310;2022-07-06T14:20:01;3.38;;;2.08;;
11681;SDS011;5897;42.640;23.310;2022-07-06T14:22:28;2.03;;;1.92;;
11681;SDS011;5897;42.640;23.310;2022-07-06T14:24:55;3.00;;;2.08;;
11681;SDS011;5897;42.640;23.310;2022-07-06T14:27:22;2.17;;;1.95;;
11681;SDS011;5897;42.640;23.310;2022-07-06T14:29:50;2.75;;;2.13;;
11681;SDS011;5897;42.640;23.310;2022-07-06T14:32:17;2.97;;;1.67;;
11681;SDS011;5897;42.640;23.310;2022-07-06T14:34:43;2.42;;;2.20;;
11681;SDS011;5897;42.640;23.310;2022-07-06T14:37:10;3.30;;;2.22;;
11681;SDS011;5897;42.640;23.310;2022-07-06T14:39:37;2.22;;;2.03;;
11681;SDS011;5897;42.640;23.310;2022-07-06T14:42:04;3.58;;;2.10;;
11681;SDS011;5897;42.640;23.310;2022-07-06T14:44:31;2.30;;;2.08;;
11681;SDS011;5897;42.640;23.310;2022-07-06T14:46:59;3.15;;;2.30;;
11681;SDS011;5897;42.640;23.310;2022-07-06T14:49:26;2.28;;;1.90;;
11681;SDS011;5897;42.640;23.310;2022-07-06T14:51:53;2.22;;;2.13;;